Latest Weather Observations for Cape Naturaliste

IDW60801

Issued at 10:04 pm WST Thursday 29 June 2017 (issued every 30 minutes, with the page automatically refreshed every 10 minutes)

About weather observations | Map of weather stations | Latest weather observations for WA | Other Formats
Station Details ID: 009519 Name: CAPE NATURALISTE Lat: -33.54 Lon: 115.02 Height: 109.0 m
Data from the previous 72 hours. | See also: Recent months at Cape Naturaliste
Date/Time
WST
Temp
°C
App
Temp
°C
Dew
Point
°C
Rel
Hum
%
Delta-T
°C
Wind Press
QNH
hPa
Press
MSL
hPa
Rain since
9am
mm
Dir  Spd
km/h
Gust
km/h
Spd
kts
Gust
kts
29/10:00pm 15.9 9.0 6.6 54 4.6 N 32 44 17 24 1021.5 1021.4 0.0
29/09:30pm 15.9 8.9 6.9 55 4.4 N 33 46 18 25 1021.8 1021.7 0.0
29/09:00pm 15.9 8.8 6.3 53 4.7 N 33 44 18 24 1022.4 1022.3 0.0
29/08:30pm 15.8 8.7 6.3 53 4.6 N 33 44 18 24 1022.6 1022.5 0.0
29/08:00pm 16.0 9.0 7.0 55 4.4 N 33 44 18 24 1023.0 1022.9 0.0
29/07:30pm 16.0 9.6 7.0 55 4.5 N 30 39 16 21 1023.1 1023.0 0.0
29/07:00pm 16.0 10.1 7.5 57 4.2 NNW 28 43 15 23 1023.3 1023.2 0.0
29/06:30pm 16.0 9.9 8.2 60 4.0 N 30 43 16 23 1023.5 1023.4 0.0
29/06:00pm 16.0 10.3 8.2 60 3.9 N 28 35 15 19 1023.7 1023.6 0.0
29/05:30pm 16.0 9.9 8.2 60 4.0 N 30 37 16 20 1023.7 1023.6 0.0
29/05:00pm 16.2 10.7 9.2 63 3.6 N 28 35 15 19 1024.2 1024.1 0.0
29/04:30pm 16.6 10.8 8.1 57 4.3 N 28 39 15 21 1024.4 1024.3 0.0
29/04:00pm 17.4 10.9 8.0 54 4.8 N 32 41 17 22 1024.7 1024.7 0.0
29/03:30pm 18.7 12.8 9.2 54 5.0 N 30 41 16 22 1024.8 1024.8 0.0
29/03:00pm 16.7 10.5 9.4 62 3.8 N 32 46 17 25 1025.0 1025.0 0.0
29/02:30pm 16.9 11.0 9.1 60 4.1 N 30 39 16 21 1025.3 1025.3 0.0
29/02:00pm 17.3 10.9 8.7 57 4.4 N 32 43 17 23 1025.5 1025.5 0.0
29/01:30pm 18.1 10.8 8.9 55 4.8 N 37 48 20 26 1026.0 1026.0 0.0
29/01:00pm 18.4 11.6 9.2 55 4.8 N 35 44 19 24 1026.6 1026.6 0.0
29/12:30pm 17.1 9.9 7.7 54 4.8 N 35 50 19 27 1027.0 1027.0 0.0
29/12:00pm 16.7 8.9 8.4 58 4.2 N 39 50 21 27 1027.5 1027.5 0.0
29/11:30am 17.3 9.7 9.0 58 4.3 N 39 52 21 28 1027.8 1027.8 0.0
29/11:00am 17.3 9.2 8.7 57 4.4 N 41 52 22 28 1028.1 1028.1 0.0
29/10:30am 17.0 8.6 8.9 59 4.2 N 43 59 23 32 1028.4 1028.4 0.0
29/10:00am 16.9 8.7 9.8 63 3.7 N 43 54 23 29 1028.7 1028.6 0.0
29/09:30am 16.9 8.9 9.1 60 4.1 N 41 52 22 28 1028.9 1028.8 0.0
29/09:00am 16.1 7.7 9.1 63 3.6 NNE 43 52 23 28 1029.0 1028.9 0.0
29/08:30am 16.0 8.6 9.9 67 3.2 NNE 39 50 21 27 1029.1 1029.0 0.0
29/08:00am 15.3 8.1 9.2 67 3.1 NNE 37 48 20 26 1029.2 1029.1 0.0
29/07:30am 15.1 8.7 9.2 68 3.0 NNE 33 43 18 23 1029.3 1029.2 0.0
29/07:00am 15.1 8.6 9.0 67 3.1 NNE 33 43 18 23 1029.3 1029.2 0.0
29/06:30am 15.2 8.9 8.9 66 3.2 NNE 32 41 17 22 1029.4 1029.3 0.0
29/06:00am 15.0 8.6 8.5 65 3.3 NNE 32 41 17 22 1029.3 1029.2 0.0
29/05:30am 14.8 8.3 8.3 65 3.3 NNE 32 39 17 21 1029.3 1029.2 0.0
29/05:00am 14.6 8.8 7.9 64 3.3 NNE 28 35 15 19 1029.5 1029.4 0.0
29/04:30am 14.2 8.2 8.6 69 2.8 NNE 30 37 16 20 1029.7 1029.6 0.0
29/04:00am 13.8 8.5 8.6 71 2.6 NNE 26 35 14 19 1029.9 1029.8 0.0
29/03:30am 13.7 8.0 8.5 71 2.6 NE 28 35 15 19 1030.0 1029.9 0.0
29/03:00am 13.6 7.9 8.4 71 2.6 NE 28 35 15 19 1030.2 1030.1 0.0
29/02:30am 13.8 8.2 8.8 72 2.5 NE 28 35 15 19 1030.3 1030.2 0.0
29/02:00am 13.9 8.2 8.3 69 2.8 NE 28 33 15 18 1030.6 1030.5 0.0
29/01:30am 14.1 8.6 7.4 64 3.3 NNE 26 35 14 19 1030.9 1030.8 0.0
29/01:00am 13.9 8.7 8.9 72 2.5 NE 26 35 14 19 1031.0 1030.9 0.0
29/12:30am 13.7 8.5 8.7 72 2.5 NE 26 32 14 17 1031.3 1031.2 0.0
29/12:00am 13.7 7.9 8.1 69 2.8 NE 28 33 15 18 1031.4 1031.3 0.0
 
Date/Time
WST
Temp
°C
App
Temp
°C
Dew
Point
°C
Rel
Hum
%
Delta-T
°C
Wind Press
QNH
hPa
Press
MSL
hPa
Rain since
9am
mm
Dir  Spd
km/h
Gust
km/h
Spd
kts
Gust
kts
28/11:30pm 13.5 8.9 8.1 70 2.7 ENE 22 30 12 16 1031.4 1031.3 0.0
28/11:00pm 11.4 7.4 8.3 81 1.5 E 19 24 10 13 1031.6 1031.5 0.0
28/10:30pm 10.5 6.3 7.4 81 1.5 ESE 19 22 10 12 1031.7 1031.6 0.0
28/10:00pm 10.9 6.6 7.2 78 1.8 ESE 19 22 10 12 1031.9 1031.8 0.0
28/09:30pm 11.0 7.1 7.3 78 1.8 ESE 17 19 9 10 1032.1 1032.0 0.0
28/09:00pm 10.9 7.4 7.4 79 1.7 ESE 15 17 8 9 1032.2 1032.1 0.0
28/08:30pm 10.7 7.2 7.0 78 1.8 SE 15 17 8 9 1032.3 1032.3 0.0
28/08:00pm 10.8 7.6 6.7 76 1.9 SE 13 15 7 8 1032.2 1032.1 0.0
28/07:30pm 11.3 8.5 6.8 74 2.1 ESE 11 11 6 6 1032.2 1032.1 0.0
28/07:00pm 11.7 9.3 6.8 72 2.3 E 9 11 5 6 1032.1 1032.0 0.0
28/06:30pm 12.0 9.2 6.9 71 2.5 ENE 11 13 6 7 1031.9 1031.8 0.0
28/06:00pm 12.1 9.3 7.0 71 2.4 E 11 13 6 7 1031.7 1031.6 0.0
28/05:30pm 12.4 9.6 6.9 69 2.7 ENE 11 15 6 8 1031.7 1031.6 0.0
28/05:00pm 13.9 11.8 8.1 68 2.9 NE 9 13 5 7 1031.6 1031.5 0.0
28/04:30pm 14.9 12.4 8.4 65 3.3 ENE 11 15 6 8 1031.7 1031.6 0.0
28/04:00pm 15.7 12.6 8.7 63 3.6 NE 15 19 8 10 1031.8 1031.7 0.0
28/03:30pm 16.1 13.0 8.8 62 3.8 ENE 15 19 8 10 1031.7 1031.6 0.0
28/03:00pm 16.3 13.0 9.5 64 3.5 NE 17 22 9 12 1031.6 1031.5 0.0
28/02:30pm 16.1 12.5 10.0 67 3.2 ENE 19 26 10 14 1031.5 1031.4 0.0
28/02:00pm 15.9 11.7 9.6 66 3.3 ENE 22 28 12 15 1031.7 1031.6 0.0
28/01:30pm 15.7 11.9 9.8 68 3.1 ENE 20 28 11 15 1031.7 1031.6 0.0
28/01:00pm 15.4 11.1 9.5 68 3.0 ENE 22 28 12 15 1032.1 1032.0 0.0
28/12:30pm 15.3 10.3 9.4 68 3.1 ENE 26 33 14 18 1032.5 1032.5 0.0
28/12:00pm 15.3 9.9 9.4 68 3.0 ENE 28 37 15 20 1032.9 1032.9 0.0
28/11:30am 15.0 9.9 9.1 68 3.0 ENE 26 33 14 18 1033.4 1033.4 0.0
28/11:00am 15.0 9.6 9.4 69 2.9 ENE 28 37 15 20 1033.6 1033.6 0.0
28/10:30am 14.9 9.6 9.7 71 2.7 ENE 28 37 15 20 1033.6 1033.6 0.0
28/10:00am 14.1 8.7 9.5 74 2.3 ENE 28 35 15 19 1033.7 1033.7 0.0
28/09:30am 13.7 8.3 9.6 76 2.1 ENE 28 35 15 19 1033.7 1033.7 0.0
28/09:00am 13.0 8.0 9.4 79 1.8 ENE 26 37 14 20 1033.4 1033.4 0.0
28/08:30am 12.3 7.2 9.3 82 1.5 ENE 26 35 14 19 1033.2 1033.2 0.0
28/08:00am 11.4 5.9 9.1 86 1.1 ENE 28 35 15 19 1033.0 1033.0 0.0
28/07:30am 10.7 4.7 8.6 87 1.0 E 30 35 16 19 1032.7 1032.7 0.0
28/07:00am 10.7 5.1 8.8 88 0.9 E 28 37 15 20 1032.6 1032.6 0.0
28/06:30am 10.9 5.7 9.0 88 0.9 E 26 35 14 19 1032.4 1032.4 0.0
28/06:00am 10.8 5.7 9.1 89 0.8 E 26 39 14 21 1032.1 1032.0 0.0
28/05:30am 10.6 5.1 9.0 90 0.8 E 28 35 15 19 1031.8 1031.7 0.0
28/05:00am 9.3 4.2 7.6 89 0.8 E 24 28 13 15 1031.9 1031.8 0.0
28/04:30am 9.6 4.9 7.7 88 0.9 ESE 22 26 12 14 1031.9 1031.8 0.0
28/04:00am 9.7 5.3 7.5 86 1.0 ESE 20 26 11 14 1031.8 1031.7 0.0
28/03:30am 10.7 6.6 7.9 83 1.4 ESE 19 22 10 12 1032.0 1031.9 0.0
28/03:00am 12.3 8.3 9.1 81 1.6 E 20 26 11 14 1032.1 1032.0 0.0
28/02:30am 12.7 8.4 9.2 79 1.8 ENE 22 30 12 16 1032.0 1031.9 0.0
28/02:00am 13.1 7.7 9.5 79 1.8 ENE 28 37 15 20 1031.9 1031.8 0.0
28/01:30am 13.1 7.7 9.5 79 1.8 ENE 28 35 15 19 1031.6 1031.5 0.0
28/01:00am 13.1 7.0 9.7 80 1.7 ENE 32 41 17 22 1031.5 1031.4 0.0
28/12:30am 12.9 8.9 10.4 85 1.3 ENE 22 32 12 17 1031.6 1031.5 0.0
28/12:00am 12.0 7.9 10.1 88 1.0 E 22 32 12 17 1031.7 1031.6 0.0
 
Date/Time
WST
Temp
°C
App
Temp
°C
Dew
Point
°C
Rel
Hum
%
Delta-T
°C
Wind Press
QNH
hPa
Press
MSL
hPa
Rain since
9am
mm
Dir  Spd
km/h
Gust
km/h
Spd
kts
Gust
kts
27/11:30pm 11.4 7.6 9.7 89 0.9 ESE 20 26 11 14 1031.6 1031.5 0.0
27/11:00pm 10.8 7.0 8.9 88 0.9 SE 19 22 10 12 1031.4 1031.3 0.0
27/10:30pm 11.3 7.5 9.2 87 1.1 SE 19 24 10 13 1031.3 1031.2 0.0
27/10:00pm 11.6 7.9 9.5 87 1.1 SE 19 24 10 13 1031.1 1031.0 0.0
27/09:30pm 11.8 8.5 9.7 87 1.1 SE 17 24 9 13 1031.0 1030.9 0.0
27/09:00pm 11.9 8.1 9.8 87 1.1 SE 20 26 11 14 1030.8 1030.7 0.0
27/08:30pm 11.7 7.8 9.6 87 1.1 SE 20 28 11 15 1030.6 1030.5 0.0
27/08:00pm 11.9 8.2 9.6 86 1.2 SSE 19 24 10 13 1030.4 1030.3 0.0
27/07:30pm 12.1 8.5 9.7 85 1.2 SSE 19 26 10 14 1030.3 1030.2 0.0
27/07:00pm 12.4 9.2 9.8 84 1.3 SSE 17 22 9 12 1029.9 1029.8 0.0
27/06:30pm 12.2 9.3 9.6 84 1.3 SSE 15 19 8 10 1029.6 1029.5 0.0
27/06:00pm 12.3 9.3 9.3 82 1.5 SSE 15 19 8 10 1029.4 1029.3 0.0
27/05:30pm 12.9 10.0 9.5 80 1.7 S 15 20 8 11 1029.1 1029.0 0.0
27/05:00pm 13.7 10.7 9.4 75 2.2 S 15 20 8 11 1028.8 1028.7 0.0
27/04:30pm 15.0 12.3 10.4 74 2.4 SSW 15 20 8 11 1028.7 1028.6 0.0
27/04:00pm 15.0 12.1 9.8 71 2.7 S 15 20 8 11 1028.8 1028.7 0.0
27/03:30pm 15.4 12.1 9.7 69 3.0 S 17 24 9 13 1028.6 1028.5 0.0
27/03:00pm 16.9 13.6 9.6 62 3.8 SSE 17 24 9 13 1028.3 1028.3 0.0
27/02:30pm 17.5 14.7 9.9 61 4.0 SSE 15 20 8 11 1028.3 1028.3 0.0
27/02:00pm 15.9 13.2 8.9 63 3.6 SSE 13 19 7 10 1028.2 1028.2 0.0
27/01:30pm 18.0 15.5 9.6 58 4.4 SE 13 17 7 9 1028.3 1028.3 0.0
27/01:00pm 17.3 14.0 9.5 60 4.1 SE 17 24 9 13 1028.7 1028.6 0.0
27/12:30pm 17.6 14.7 9.5 59 4.3 SSE 15 20 8 11 1029.0 1028.9 0.0
27/12:00pm 17.8 15.1 10.4 62 3.9 ESE 15 22 8 12 1029.4 1029.3 0.0
27/11:30am 17.0 14.6 10.1 64 3.7 SSE 13 22 7 12 1029.7 1029.6 0.0
27/11:00am 16.2 14.2 10.1 67 3.2 SE 11 17 6 9 1029.7 1029.6 0.0
27/10:30am 15.5 13.1 10.1 70 2.8 SE 13 20 7 11 1029.9 1029.8 0.0
27/10:00am 14.7 12.4 10.3 75 2.3 SSE 13 17 7 9 1029.8 1029.7 0.0
27/09:30am 13.1 9.8 9.7 80 1.7 SE 17 26 9 14 1029.8 1029.7 0.0
27/09:00am 12.9 9.7 9.9 82 1.5 SE 17 24 9 13 1029.5 1029.4 0.8
27/08:30am 11.8 8.5 9.4 85 1.2 SSE 17 20 9 11 1029.2 1029.1 0.8
27/08:00am 10.1 6.4 7.9 86 1.1 SSE 17 20 9 11 1028.6 1028.5 0.8
27/07:30am 10.2 5.9 8.0 86 1.1 SSE 20 28 11 15 1028.2 1028.2 0.8
27/07:00am 10.2 5.9 7.8 85 1.2 SSE 20 26 11 14 1028.0 1028.0 0.8
27/06:30am 10.5 6.3 8.1 85 1.2 SSE 20 28 11 15 1027.7 1027.7 0.8
27/06:00am 10.3 6.2 7.7 84 1.2 SSE 19 24 10 13 1027.3 1027.3 0.8
27/05:30am 10.7 6.7 8.3 85 1.2 S 19 24 10 13 1027.0 1027.0 0.8
27/05:00am 10.6 6.4 8.4 86 1.1 SSE 20 24 11 13 1026.9 1026.9 0.8
27/04:30am 11.4 7.5 9.3 87 1.1 S 20 26 11 14 1026.8 1026.8 0.8
27/04:00am 11.2 7.4 9.1 87 1.0 SSE 19 24 10 13 1026.8 1026.8 0.8
27/03:30am 11.4 7.6 9.1 86 1.2 SSE 19 22 10 12 1026.6 1026.6 0.8
27/03:00am 11.8 7.2 9.5 86 1.2 S 24 30 13 16 1026.6 1026.6 0.8
27/02:30am 11.7 7.8 9.4 86 1.2 SSW 20 30 11 16 1026.5 1026.5 0.8
27/02:00am 11.9 8.3 9.8 87 1.1 S 19 24 10 13 1026.5 1026.5 0.8
27/01:30am 12.2 9.9 10.3 88 1.0 SSW 13 17 7 9 1026.6 1026.6 0.8
27/01:00am 12.0 9.2 9.9 87 1.1 SSW 15 19 8 10 1026.8 1026.8 0.6
27/12:30am 12.1 8.9 9.8 86 1.2 SW 17 24 9 13 1026.8 1026.8 0.2
27/12:00am 12.3 9.8 9.7 84 1.3 SSW 13 19 7 10 1027.1 1027.1 0.0
 
Date/Time
WST
Temp
°C
App
Temp
°C
Dew
Point
°C
Rel
Hum
%
Delta-T
°C
Wind Press
QNH
hPa
Press
MSL
hPa
Rain since
9am
mm
Dir  Spd
km/h
Gust
km/h
Spd
kts
Gust
kts
26/11:30pm 11.8 8.1 8.1 78 1.8 SSE 17 24 9 13 1027.2 1027.2 0.0
26/11:00pm 13.4 9.8 8.3 71 2.5 SSW 17 22 9 12 1027.3 1027.3 0.0
26/10:30pm 12.0 8.8 6.7 70 2.5 SSE 13 19 7 10 1027.3 1027.3 0.0

Other Formats:

Comma delimited format used in spreadsheet applications
http://www.bom.gov.au/fwo/IDW60801/IDW60801.94600.axf

JavaScript Object Notation format (JSON) in row-major order
http://www.bom.gov.au/fwo/IDW60801/IDW60801.94600.json